sensor_id;sensor_type;location;lat;lon;timestamp;pressure;altitude;pressure_sealevel;temperature;humidity
82870;BME280;72645;47.136;15.420;2024-01-11T00:02:22;98016.65;;;-4.51;64.28
82870;BME280;72645;47.136;15.420;2024-01-11T00:04:51;98014.84;;;-4.56;64.37
82870;BME280;72645;47.136;15.420;2024-01-11T00:07:22;98010.80;;;-4.60;64.31
82870;BME280;72645;47.136;15.420;2024-01-11T00:09:51;98011.99;;;-4.61;64.47
82870;BME280;72645;47.136;15.420;2024-01-11T00:12:23;98010.32;;;-4.62;64.58
82870;BME280;72645;47.136;15.420;2024-01-11T00:14:53;98011.02;;;-4.65;64.55
82870;BME280;72645;47.136;15.420;2024-01-11T00:17:24;98008.98;;;-4.65;64.58
82870;BME280;72645;47.136;15.420;2024-01-11T00:19:54;98005.39;;;-4.65;64.40
82870;BME280;72645;47.136;15.420;2024-01-11T00:22:25;98001.85;;;-4.68;64.65
82870;BME280;72645;47.136;15.420;2024-01-11T00:24:56;97998.32;;;-4.73;64.63
82870;BME280;72645;47.136;15.420;2024-01-11T00:27:27;98001.65;;;-4.79;64.71
82870;BME280;72645;47.136;15.420;2024-01-11T00:29:56;98001.41;;;-4.87;64.49
82870;BME280;72645;47.136;15.420;2024-01-11T00:32:27;98002.88;;;-4.96;65.17
82870;BME280;72645;47.136;15.420;2024-01-11T00:34:56;98003.68;;;-5.06;65.46
82870;BME280;72645;47.136;15.420;2024-01-11T00:37:27;98001.21;;;-5.14;65.63
82870;BME280;72645;47.136;15.420;2024-01-11T00:39:58;97998.02;;;-5.19;65.43
82870;BME280;72645;47.136;15.420;2024-01-11T00:42:27;97999.92;;;-5.21;65.85
82870;BME280;72645;47.136;15.420;2024-01-11T00:44:58;97998.60;;;-5.26;65.84
82870;BME280;72645;47.136;15.420;2024-01-11T00:47:29;97999.52;;;-5.32;65.65
82870;BME280;72645;47.136;15.420;2024-01-11T00:50:01;98000.42;;;-5.36;65.95
82870;BME280;72645;47.136;15.420;2024-01-11T00:52:30;98001.15;;;-5.41;66.33
82870;BME280;72645;47.136;15.420;2024-01-11T00:55:01;97998.98;;;-5.45;65.88
82870;BME280;72645;47.136;15.420;2024-01-11T00:57:32;98002.06;;;-5.47;66.24
82870;BME280;72645;47.136;15.420;2024-01-11T01:00:01;98002.08;;;-5.48;66.16
82870;BME280;72645;47.136;15.420;2024-01-11T01:02:32;98004.65;;;-5.50;66.40
82870;BME280;72645;47.136;15.420;2024-01-11T01:05:04;98008.23;;;-5.51;66.44
82870;BME280;72645;47.136;15.420;2024-01-11T01:07:35;98006.05;;;-5.53;66.34
82870;BME280;72645;47.136;15.420;2024-01-11T01:10:08;98002.31;;;-5.54;66.88
82870;BME280;72645;47.136;15.420;2024-01-11T01:12:39;98000.61;;;-5.55;66.77
82870;BME280;72645;47.136;15.420;2024-01-11T01:15:10;98004.85;;;-5.53;66.81
82870;BME280;72645;47.136;15.420;2024-01-11T01:17:41;98002.77;;;-5.47;66.72
82870;BME280;72645;47.136;15.420;2024-01-11T01:20:11;98003.52;;;-5.38;66.89
82870;BME280;72645;47.136;15.420;2024-01-11T01:22:42;98003.26;;;-5.29;66.62
82870;BME280;72645;47.136;15.420;2024-01-11T01:25:13;98001.81;;;-5.22;66.54
82870;BME280;72645;47.136;15.420;2024-01-11T01:27:44;98002.41;;;-5.15;66.20
82870;BME280;72645;47.136;15.420;2024-01-11T01:30:16;98006.73;;;-5.04;66.31
82870;BME280;72645;47.136;15.420;2024-01-11T01:32:47;98008.10;;;-4.89;66.07
82870;BME280;72645;47.136;15.420;2024-01-11T01:35:18;98006.56;;;-4.77;65.61
82870;BME280;72645;47.136;15.420;2024-01-11T01:37:49;98001.52;;;-4.70;65.20
82870;BME280;72645;47.136;15.420;2024-01-11T01:40:20;97999.31;;;-4.71;65.02
82870;BME280;72645;47.136;15.420;2024-01-11T01:42:57;97992.02;;;-4.75;65.15
82870;BME280;72645;47.136;15.420;2024-01-11T01:45:28;97994.73;;;-4.85;65.34
82870;BME280;72645;47.136;15.420;2024-01-11T01:47:59;97995.57;;;-4.98;65.50
82870;BME280;72645;47.136;15.420;2024-01-11T01:50:31;97990.08;;;-5.11;65.32
82870;BME280;72645;47.136;15.420;2024-01-11T01:53:03;97993.05;;;-5.17;65.88
82870;BME280;72645;47.136;15.420;2024-01-11T01:55:34;97991.41;;;-5.24;65.60
82870;BME280;72645;47.136;15.420;2024-01-11T01:58:04;97986.88;;;-5.30;66.26
82870;BME280;72645;47.136;15.420;2024-01-11T02:00:35;97984.73;;;-5.37;66.49
82870;BME280;72645;47.136;15.420;2024-01-11T02:03:04;97977.67;;;-5.46;66.31
82870;BME280;72645;47.136;15.420;2024-01-11T02:05:35;97972.08;;;-5.52;66.13
82870;BME280;72645;47.136;15.420;2024-01-11T02:08:08;97970.58;;;-5.55;66.35
82870;BME280;72645;47.136;15.420;2024-01-11T02:10:40;97964.95;;;-5.55;66.70
82870;BME280;72645;47.136;15.420;2024-01-11T02:13:11;97962.58;;;-5.56;66.93
82870;BME280;72645;47.136;15.420;2024-01-11T02:15:43;97956.95;;;-5.56;66.98
82870;BME280;72645;47.136;15.420;2024-01-11T02:18:14;97955.60;;;-5.57;66.72
82870;BME280;72645;47.136;15.420;2024-01-11T02:20:43;97957.66;;;-5.58;66.84
82870;BME280;72645;47.136;15.420;2024-01-11T02:23:19;97956.11;;;-5.58;66.79
82870;BME280;72645;47.136;15.420;2024-01-11T02:25:52;97954.91;;;-5.57;66.45
82870;BME280;72645;47.136;15.420;2024-01-11T02:28:21;97950.48;;;-5.57;66.42
82870;BME280;72645;47.136;15.420;2024-01-11T02:30:52;97953.90;;;-5.57;66.21
82870;BME280;72645;47.136;15.420;2024-01-11T02:33:21;97954.95;;;-5.59;66.16
82870;BME280;72645;47.136;15.420;2024-01-11T02:35:53;97954.78;;;-5.61;66.39
82870;BME280;72645;47.136;15.420;2024-01-11T02:38:24;97953.95;;;-5.63;66.26
82870;BME280;72645;47.136;15.420;2024-01-11T02:40:53;97954.14;;;-5.65;66.51
82870;BME280;72645;47.136;15.420;2024-01-11T02:43:25;97951.41;;;-5.65;66.76
82870;BME280;72645;47.136;15.420;2024-01-11T02:45:57;97951.39;;;-5.64;66.83
82870;BME280;72645;47.136;15.420;2024-01-11T02:48:30;97952.25;;;-5.64;66.39
82870;BME280;72645;47.136;15.420;2024-01-11T02:51:02;97949.55;;;-5.65;66.66
82870;BME280;72645;47.136;15.420;2024-01-11T02:53:32;97950.04;;;-5.64;66.53
82870;BME280;72645;47.136;15.420;2024-01-11T02:56:05;97946.38;;;-5.56;66.21
82870;BME280;72645;47.136;15.420;2024-01-11T02:58:36;97943.71;;;-5.47;66.52
82870;BME280;72645;47.136;15.420;2024-01-11T03:01:07;97948.06;;;-5.38;66.29
82870;BME280;72645;47.136;15.420;2024-01-11T03:03:36;97943.73;;;-5.32;66.21
82870;BME280;72645;47.136;15.420;2024-01-11T03:06:07;97946.96;;;-5.30;66.41
82870;BME280;72645;47.136;15.420;2024-01-11T03:08:37;97943.59;;;-5.35;66.35
82870;BME280;72645;47.136;15.420;2024-01-11T03:11:08;97940.71;;;-5.37;66.46
82870;BME280;72645;47.136;15.420;2024-01-11T03:13:39;97941.40;;;-5.38;66.56
82870;BME280;72645;47.136;15.420;2024-01-11T03:16:10;97934.79;;;-5.42;66.72
82870;BME280;72645;47.136;15.420;2024-01-11T03:18:41;97934.88;;;-5.50;66.72
82870;BME280;72645;47.136;15.420;2024-01-11T03:21:12;97935.29;;;-5.56;66.80
82870;BME280;72645;47.136;15.420;2024-01-11T03:23:43;97936.70;;;-5.61;66.46
82870;BME280;72645;47.136;15.420;2024-01-11T03:26:15;97937.07;;;-5.64;66.82
82870;BME280;72645;47.136;15.420;2024-01-11T03:28:47;97933.69;;;-5.65;66.76
82870;BME280;72645;47.136;15.420;2024-01-11T03:31:18;97933.52;;;-5.66;66.96
82870;BME280;72645;47.136;15.420;2024-01-11T03:33:49;97927.60;;;-5.72;67.03
82870;BME280;72645;47.136;15.420;2024-01-11T03:36:22;97921.35;;;-5.77;66.82
82870;BME280;72645;47.136;15.420;2024-01-11T03:38:53;97919.55;;;-5.82;67.24
82870;BME280;72645;47.136;15.420;2024-01-11T03:41:24;97911.25;;;-5.87;67.03
82870;BME280;72645;47.136;15.420;2024-01-11T03:43:54;97910.10;;;-5.92;67.49
82870;BME280;72645;47.136;15.420;2024-01-11T03:46:25;97906.03;;;-5.95;67.57
82870;BME280;72645;47.136;15.420;2024-01-11T03:48:56;97904.71;;;-5.99;67.28
82870;BME280;72645;47.136;15.420;2024-01-11T03:51:27;97904.77;;;-6.03;67.53
82870;BME280;72645;47.136;15.420;2024-01-11T03:53:58;97903.05;;;-6.05;67.67
82870;BME280;72645;47.136;15.420;2024-01-11T03:56:29;97894.55;;;-6.06;67.95
82870;BME280;72645;47.136;15.420;2024-01-11T03:59:01;97890.77;;;-6.02;67.90
82870;BME280;72645;47.136;15.420;2024-01-11T04:01:32;97892.23;;;-5.94;68.28
82870;BME280;72645;47.136;15.420;2024-01-11T04:04:04;97893.65;;;-5.84;68.06
82870;BME280;72645;47.136;15.420;2024-01-11T04:06:35;97897.80;;;-5.74;67.67
82870;BME280;72645;47.136;15.420;2024-01-11T04:09:06;97891.18;;;-5.62;67.05
82870;BME280;72645;47.136;15.420;2024-01-11T04:11:36;97887.98;;;-5.51;67.05
82870;BME280;72645;47.136;15.420;2024-01-11T04:14:07;97889.59;;;-5.43;66.51
82870;BME280;72645;47.136;15.420;2024-01-11T04:16:42;97887.48;;;-5.37;66.33
82870;BME280;72645;47.136;15.420;2024-01-11T04:19:14;97886.42;;;-5.34;66.32
82870;BME280;72645;47.136;15.420;2024-01-11T04:21:48;97884.75;;;-5.36;66.53
82870;BME280;72645;47.136;15.420;2024-01-11T04:24:17;97881.25;;;-5.44;66.30
82870;BME280;72645;47.136;15.420;2024-01-11T04:26:48;97879.27;;;-5.50;66.31
82870;BME280;72645;47.136;15.420;2024-01-11T04:29:19;97877.42;;;-5.52;66.34
82870;BME280;72645;47.136;15.420;2024-01-11T04:31:48;97877.23;;;-5.51;66.16
82870;BME280;72645;47.136;15.420;2024-01-11T04:34:19;97873.52;;;-5.54;66.39
82870;BME280;72645;47.136;15.420;2024-01-11T04:36:50;97872.17;;;-5.56;66.15
82870;BME280;72645;47.136;15.420;2024-01-11T04:39:21;97869.81;;;-5.57;66.45
82870;BME280;72645;47.136;15.420;2024-01-11T04:41:52;97869.13;;;-5.57;66.27
82870;BME280;72645;47.136;15.420;2024-01-11T04:44:23;97866.22;;;-5.58;66.51
82870;BME280;72645;47.136;15.420;2024-01-11T04:46:56;97863.00;;;-5.59;66.95
82870;BME280;72645;47.136;15.420;2024-01-11T04:49:28;97865.91;;;-5.60;66.77
82870;BME280;72645;47.136;15.420;2024-01-11T04:51:59;97871.58;;;-5.63;66.72
82870;BME280;72645;47.136;15.420;2024-01-11T04:54:30;97871.14;;;-5.69;66.81
82870;BME280;72645;47.136;15.420;2024-01-11T04:57:01;97866.27;;;-5.77;66.42
82870;BME280;72645;47.136;15.420;2024-01-11T04:59:30;97869.61;;;-5.85;66.29
82870;BME280;72645;47.136;15.420;2024-01-11T05:02:01;97863.08;;;-5.94;67.10
82870;BME280;72645;47.136;15.420;2024-01-11T05:04:31;97860.77;;;-6.01;66.99
82870;BME280;72645;47.136;15.420;2024-01-11T05:07:02;97863.39;;;-6.08;67.72
82870;BME280;72645;47.136;15.420;2024-01-11T05:09:33;97867.59;;;-6.20;67.44
82870;BME280;72645;47.136;15.420;2024-01-11T05:12:02;97868.04;;;-6.32;68.30
82870;BME280;72645;47.136;15.420;2024-01-11T05:14:34;97871.50;;;-6.38;68.37
82870;BME280;72645;47.136;15.420;2024-01-11T05:17:06;97867.91;;;-6.36;68.34
82870;BME280;72645;47.136;15.420;2024-01-11T05:19:37;97859.84;;;-6.29;68.39
82870;BME280;72645;47.136;15.420;2024-01-11T05:22:08;97862.61;;;-6.17;68.13
82870;BME280;72645;47.136;15.420;2024-01-11T05:24:39;97856.05;;;-6.08;67.61
82870;BME280;72645;47.136;15.420;2024-01-11T05:27:10;97857.66;;;-5.98;67.51
82870;BME280;72645;47.136;15.420;2024-01-11T05:29:44;97855.15;;;-5.87;67.52
82870;BME280;72645;47.136;15.420;2024-01-11T05:32:15;97852.30;;;-5.78;67.75
82870;BME280;72645;47.136;15.420;2024-01-11T05:34:44;97851.50;;;-5.68;66.98
82870;BME280;72645;47.136;15.420;2024-01-11T05:37:16;97850.73;;;-5.61;67.35
82870;BME280;72645;47.136;15.420;2024-01-11T05:39:47;97848.31;;;-5.56;66.93
82870;BME280;72645;47.136;15.420;2024-01-11T05:42:17;97840.77;;;-5.54;66.73
82870;BME280;72645;47.136;15.420;2024-01-11T05:44:48;97841.44;;;-5.53;66.92
82870;BME280;72645;47.136;15.420;2024-01-11T05:47:19;97844.41;;;-5.59;66.78
82870;BME280;72645;47.136;15.420;2024-01-11T05:49:50;97844.67;;;-5.67;66.46
82870;BME280;72645;47.136;15.420;2024-01-11T05:52:21;97847.29;;;-5.72;66.67
82870;BME280;72645;47.136;15.420;2024-01-11T05:54:52;97849.56;;;-5.77;66.70
82870;BME280;72645;47.136;15.420;2024-01-11T05:57:23;97853.50;;;-5.79;67.08
82870;BME280;72645;47.136;15.420;2024-01-11T05:59:54;97858.97;;;-5.80;67.42
82870;BME280;72645;47.136;15.420;2024-01-11T06:02:25;97861.36;;;-5.80;67.56
82870;BME280;72645;47.136;15.420;2024-01-11T06:04:56;97859.49;;;-5.81;67.04
82870;BME280;72645;47.136;15.420;2024-01-11T06:07:27;97859.73;;;-5.84;67.23
82870;BME280;72645;47.136;15.420;2024-01-11T06:09:58;97858.06;;;-5.88;67.41
82870;BME280;72645;47.136;15.420;2024-01-11T06:12:30;97854.59;;;-5.97;67.41
82870;BME280;72645;47.136;15.420;2024-01-11T06:15:00;97854.73;;;-6.12;67.68
82870;BME280;72645;47.136;15.420;2024-01-11T06:17:31;97856.41;;;-6.28;67.87
82870;BME280;72645;47.136;15.420;2024-01-11T06:20:02;97859.23;;;-6.39;67.75
82870;BME280;72645;47.136;15.420;2024-01-11T06:22:35;97857.08;;;-6.43;67.84
82870;BME280;72645;47.136;15.420;2024-01-11T06:25:07;97853.46;;;-6.41;68.09
82870;BME280;72645;47.136;15.420;2024-01-11T06:27:38;97843.52;;;-6.33;67.89
82870;BME280;72645;47.136;15.420;2024-01-11T06:30:10;97834.93;;;-6.25;68.15
82870;BME280;72645;47.136;15.420;2024-01-11T06:32:41;97829.77;;;-6.22;68.14
82870;BME280;72645;47.136;15.420;2024-01-11T06:35:12;97834.85;;;-6.18;67.90
82870;BME280;72645;47.136;15.420;2024-01-11T06:37:42;97836.67;;;-6.14;68.03
82870;BME280;72645;47.136;15.420;2024-01-11T06:40:13;97838.50;;;-6.07;67.80
82870;BME280;72645;47.136;15.420;2024-01-11T06:42:44;97837.02;;;-5.98;67.49
82870;BME280;72645;47.136;15.420;2024-01-11T06:45:15;97831.77;;;-5.84;67.34
82870;BME280;72645;47.136;15.420;2024-01-11T06:47:46;97834.05;;;-5.77;66.91
82870;BME280;72645;47.136;15.420;2024-01-11T06:50:19;97837.05;;;-5.72;66.93
82870;BME280;72645;47.136;15.420;2024-01-11T06:52:48;97839.78;;;-5.72;67.13
82870;BME280;72645;47.136;15.420;2024-01-11T06:55:19;97839.42;;;-5.70;67.30
82870;BME280;72645;47.136;15.420;2024-01-11T06:57:50;97837.17;;;-5.68;67.09
82870;BME280;72645;47.136;15.420;2024-01-11T07:00:21;97839.93;;;-5.70;67.37
82870;BME280;72645;47.136;15.420;2024-01-11T07:02:52;97838.44;;;-5.73;67.10
82870;BME280;72645;47.136;15.420;2024-01-11T07:05:24;97839.34;;;-5.78;66.86
82870;BME280;72645;47.136;15.420;2024-01-11T07:07:53;97833.48;;;-5.84;67.19
82870;BME280;72645;47.136;15.420;2024-01-11T07:10:24;97836.94;;;-5.89;67.29
82870;BME280;72645;47.136;15.420;2024-01-11T07:12:55;97832.75;;;-5.96;67.45
82870;BME280;72645;47.136;15.420;2024-01-11T07:15:26;97828.72;;;-6.01;67.39
82870;BME280;72645;47.136;15.420;2024-01-11T07:17:55;97820.92;;;-6.06;67.66
82870;BME280;72645;47.136;15.420;2024-01-11T07:20:27;97820.64;;;-6.10;67.68
82870;BME280;72645;47.136;15.420;2024-01-11T07:22:56;97819.98;;;-6.15;68.18
82870;BME280;72645;47.136;15.420;2024-01-11T07:25:27;97823.27;;;-6.18;68.27
82870;BME280;72645;47.136;15.420;2024-01-11T07:27:58;97815.27;;;-6.20;68.85
82870;BME280;72645;47.136;15.420;2024-01-11T07:30:29;97818.80;;;-6.15;68.97
82870;BME280;72645;47.136;15.420;2024-01-11T07:32:58;97815.44;;;-5.89;69.37
82870;BME280;72645;47.136;15.420;2024-01-11T07:35:30;97820.82;;;-5.29;69.00
82870;BME280;72645;47.136;15.420;2024-01-11T07:37:59;97827.27;;;-5.03;68.29
82870;BME280;72645;47.136;15.420;2024-01-11T07:40:30;97828.91;;;-4.98;67.60
82870;BME280;72645;47.136;15.420;2024-01-11T07:43:05;97821.39;;;-4.97;70.08
82870;BME280;72645;47.136;15.420;2024-01-11T07:45:34;97821.80;;;-4.27;83.38
82870;BME280;72645;47.136;15.420;2024-01-11T07:48:06;97822.23;;;-4.13;77.67
82870;BME280;72645;47.136;15.420;2024-01-11T07:50:38;97813.64;;;-4.20;72.53
82870;BME280;72645;47.136;15.420;2024-01-11T07:53:08;97813.61;;;-4.18;70.82
82870;BME280;72645;47.136;15.420;2024-01-11T07:55:37;97816.59;;;-4.04;69.76
82870;BME280;72645;47.136;15.420;2024-01-11T07:58:08;97817.86;;;-3.80;69.36
82870;BME280;72645;47.136;15.420;2024-01-11T08:00:41;97812.94;;;-3.74;68.40
82870;BME280;72645;47.136;15.420;2024-01-11T08:03:12;97811.65;;;-3.77;67.87
82870;BME280;72645;47.136;15.420;2024-01-11T08:05:42;97811.88;;;-3.81;67.38
82870;BME280;72645;47.136;15.420;2024-01-11T08:08:14;97814.70;;;-3.85;67.43
82870;BME280;72645;47.136;15.420;2024-01-11T08:10:45;97819.91;;;-3.89;67.38
82870;BME280;72645;47.136;15.420;2024-01-11T08:13:14;97821.00;;;-3.92;67.38
82870;BME280;72645;47.136;15.420;2024-01-11T08:15:45;97823.45;;;-3.95;67.69
82870;BME280;72645;47.136;15.420;2024-01-11T08:18:14;97814.75;;;-3.97;67.60
82870;BME280;72645;47.136;15.420;2024-01-11T08:20:45;97809.59;;;-3.95;67.67
82870;BME280;72645;47.136;15.420;2024-01-11T08:23:18;97811.94;;;-3.92;67.67
82870;BME280;72645;47.136;15.420;2024-01-11T08:25:49;97812.86;;;-3.87;67.76
82870;BME280;72645;47.136;15.420;2024-01-11T08:28:22;97803.98;;;-3.79;67.80
82870;BME280;72645;47.136;15.420;2024-01-11T08:30:51;97804.91;;;-3.65;68.23
82870;BME280;72645;47.136;15.420;2024-01-11T08:33:22;97800.36;;;-3.44;69.10
82870;BME280;72645;47.136;15.420;2024-01-11T08:35:53;97800.48;;;-3.19;69.02
82870;BME280;72645;47.136;15.420;2024-01-11T08:38:25;97795.57;;;-2.98;68.45
82870;BME280;72645;47.136;15.420;2024-01-11T08:40:56;97797.75;;;-2.73;68.03
82870;BME280;72645;47.136;15.420;2024-01-11T08:43:28;97800.65;;;-2.52;67.23
82870;BME280;72645;47.136;15.420;2024-01-11T08:45:59;97798.92;;;-2.31;66.96
82870;BME280;72645;47.136;15.420;2024-01-11T08:48:31;97803.27;;;-2.00;66.65
82870;BME280;72645;47.136;15.420;2024-01-11T08:51:03;97802.69;;;-1.73;65.65
82870;BME280;72645;47.136;15.420;2024-01-11T08:53:34;97804.98;;;-1.51;64.85
82870;BME280;72645;47.136;15.420;2024-01-11T08:56:06;97800.77;;;-1.24;64.23
82870;BME280;72645;47.136;15.420;2024-01-11T08:58:37;97804.19;;;-0.89;63.71
82870;BME280;72645;47.136;15.420;2024-01-11T09:01:08;97802.10;;;-0.56;63.53
82870;BME280;72645;47.136;15.420;2024-01-11T09:03:39;97803.50;;;-0.25;62.80
82870;BME280;72645;47.136;15.420;2024-01-11T09:06:11;97800.08;;;0.05;62.25
82870;BME280;72645;47.136;15.420;2024-01-11T09:08:43;97791.95;;;0.35;61.64
82870;BME280;72645;47.136;15.420;2024-01-11T09:11:15;97786.13;;;0.62;60.94
82870;BME280;72645;47.136;15.420;2024-01-11T09:13:46;97781.53;;;0.92;60.45
82870;BME280;72645;47.136;15.420;2024-01-11T09:16:18;97778.80;;;1.22;59.67
82870;BME280;72645;47.136;15.420;2024-01-11T09:18:50;97778.69;;;1.51;58.90
82870;BME280;72645;47.136;15.420;2024-01-11T09:21:22;97781.07;;;1.77;58.71
82870;BME280;72645;47.136;15.420;2024-01-11T09:23:53;97787.92;;;2.07;57.77
82870;BME280;72645;47.136;15.420;2024-01-11T09:26:24;97784.20;;;2.33;57.08
82870;BME280;72645;47.136;15.420;2024-01-11T09:28:55;97789.19;;;2.60;56.22
82870;BME280;72645;47.136;15.420;2024-01-11T09:31:27;97792.62;;;2.80;55.45
82870;BME280;72645;47.136;15.420;2024-01-11T09:33:58;97788.98;;;2.95;54.94
82870;BME280;72645;47.136;15.420;2024-01-11T09:36:30;97785.45;;;3.12;54.53
82870;BME280;72645;47.136;15.420;2024-01-11T09:39:00;97783.96;;;3.29;54.42
82870;BME280;72645;47.136;15.420;2024-01-11T09:41:33;97778.66;;;3.42;53.96
82870;BME280;72645;47.136;15.420;2024-01-11T09:44:06;97774.86;;;3.52;53.27
82870;BME280;72645;47.136;15.420;2024-01-11T09:46:38;97770.05;;;3.65;53.42
82870;BME280;72645;47.136;15.420;2024-01-11T09:49:10;97767.28;;;3.83;52.64
82870;BME280;72645;47.136;15.420;2024-01-11T09:51:44;97758.89;;;3.97;51.78
82870;BME280;72645;47.136;15.420;2024-01-11T09:54:17;97754.00;;;4.18;51.39
82870;BME280;72645;47.136;15.420;2024-01-11T09:56:51;97752.56;;;4.26;51.07
82870;BME280;72645;47.136;15.420;2024-01-11T09:59:25;97749.23;;;4.43;50.98
82870;BME280;72645;47.136;15.420;2024-01-11T10:01:56;97746.40;;;4.67;50.82
82870;BME280;72645;47.136;15.420;2024-01-11T10:04:27;97747.27;;;4.86;50.14
82870;BME280;72645;47.136;15.420;2024-01-11T10:06:58;97747.11;;;4.96;49.60
82870;BME280;72645;47.136;15.420;2024-01-11T10:09:32;97743.90;;;5.07;49.32
82870;BME280;72645;47.136;15.420;2024-01-11T10:12:03;97741.03;;;5.18;49.13
82870;BME280;72645;47.136;15.420;2024-01-11T10:14:34;97732.93;;;5.32;48.81
82870;BME280;72645;47.136;15.420;2024-01-11T10:17:05;97738.53;;;5.46;48.23
82870;BME280;72645;47.136;15.420;2024-01-11T10:19:37;97736.83;;;5.55;47.93
82870;BME280;72645;47.136;15.420;2024-01-11T10:22:09;97732.52;;;5.69;47.86
82870;BME280;72645;47.136;15.420;2024-01-11T10:24:42;97722.92;;;5.79;47.34
82870;BME280;72645;47.136;15.420;2024-01-11T10:27:14;97715.08;;;5.89;47.12
82870;BME280;72645;47.136;15.420;2024-01-11T10:29:45;97711.68;;;5.96;46.60
82870;BME280;72645;47.136;15.420;2024-01-11T10:32:16;97709.66;;;6.01;46.31
82870;BME280;72645;47.136;15.420;2024-01-11T10:34:47;97714.08;;;6.03;46.37
82870;BME280;72645;47.136;15.420;2024-01-11T10:37:19;97707.95;;;6.09;46.62
82870;BME280;72645;47.136;15.420;2024-01-11T10:39:52;97702.52;;;6.21;46.62
82870;BME280;72645;47.136;15.420;2024-01-11T10:42:26;97694.75;;;6.32;45.84
82870;BME280;72645;47.136;15.420;2024-01-11T10:45:01;97689.42;;;6.28;44.99
82870;BME280;72645;47.136;15.420;2024-01-11T10:47:36;97686.85;;;6.28;45.58
82870;BME280;72645;47.136;15.420;2024-01-11T10:50:09;97681.45;;;6.31;45.71
82870;BME280;72645;47.136;15.420;2024-01-11T10:52:46;97677.30;;;6.44;45.58
82870;BME280;72645;47.136;15.420;2024-01-11T10:55:22;97669.45;;;6.61;44.96
82870;BME280;72645;47.136;15.420;2024-01-11T10:57:54;97659.71;;;6.80;44.69
82870;BME280;72645;47.136;15.420;2024-01-11T11:00:25;97651.48;;;6.97;44.15
82870;BME280;72645;47.136;15.420;2024-01-11T11:02:59;97645.91;;;7.10;43.83
82870;BME280;72645;47.136;15.420;2024-01-11T11:05:31;97643.88;;;7.18;43.56
82870;BME280;72645;47.136;15.420;2024-01-11T11:08:06;97629.65;;;7.25;43.20
82870;BME280;72645;47.136;15.420;2024-01-11T11:10:39;97628.39;;;7.34;43.08
82870;BME280;72645;47.136;15.420;2024-01-11T11:13:15;97623.15;;;7.37;42.68
82870;BME280;72645;47.136;15.420;2024-01-11T11:15:47;97613.36;;;7.34;43.14
82870;BME280;72645;47.136;15.420;2024-01-11T11:18:18;97612.98;;;7.42;43.04
82870;BME280;72645;47.136;15.420;2024-01-11T11:20:50;97608.75;;;7.46;42.92
82870;BME280;72645;47.136;15.420;2024-01-11T11:23:23;97597.11;;;7.51;42.94
82870;BME280;72645;47.136;15.420;2024-01-11T11:25:56;97587.71;;;7.56;42.24
82870;BME280;72645;47.136;15.420;2024-01-11T11:28:28;97582.45;;;7.59;41.81
82870;BME280;72645;47.136;15.420;2024-01-11T11:31:01;97576.49;;;7.62;42.24
82870;BME280;72645;47.136;15.420;2024-01-11T11:33:33;97572.36;;;7.71;42.34
82870;BME280;72645;47.136;15.420;2024-01-11T11:36:06;97572.30;;;7.74;41.61
82870;BME280;72645;47.136;15.420;2024-01-11T11:38:43;97576.06;;;7.73;41.38
82870;BME280;72645;47.136;15.420;2024-01-11T11:41:14;97578.96;;;7.74;41.24
82870;BME280;72645;47.136;15.420;2024-01-11T11:43:51;97578.10;;;7.76;41.47
82870;BME280;72645;47.136;15.420;2024-01-11T11:46:26;97574.39;;;7.89;44.75
82870;BME280;72645;47.136;15.420;2024-01-11T11:48:58;97568.42;;;7.92;41.45
82870;BME280;72645;47.136;15.420;2024-01-11T11:51:29;97563.23;;;7.89;40.65
82870;BME280;72645;47.136;15.420;2024-01-11T11:54:01;97550.77;;;7.83;40.60
82870;BME280;72645;47.136;15.420;2024-01-11T11:56:33;97544.39;;;7.77;40.79
82870;BME280;72645;47.136;15.420;2024-01-11T11:59:04;97550.92;;;7.83;40.94
82870;BME280;72645;47.136;15.420;2024-01-11T12:01:38;97551.77;;;7.94;40.48
82870;BME280;72645;47.136;15.420;2024-01-11T12:04:13;97554.16;;;7.90;40.12
82870;BME280;72645;47.136;15.420;2024-01-11T12:06:44;97553.41;;;7.78;40.20
82870;BME280;72645;47.136;15.420;2024-01-11T12:09:19;97558.23;;;7.79;40.06
82870;BME280;72645;47.136;15.420;2024-01-11T12:11:53;97555.91;;;7.79;40.32
82870;BME280;72645;47.136;15.420;2024-01-11T12:14:39;97551.95;;;7.84;41.19
82870;BME280;72645;47.136;15.420;2024-01-11T12:17:12;97543.01;;;7.92;41.67
82870;BME280;72645;47.136;15.420;2024-01-11T12:19:43;97541.27;;;8.11;44.00
82870;BME280;72645;47.136;15.420;2024-01-11T12:22:14;97532.10;;;8.15;40.63
82870;BME280;72645;47.136;15.420;2024-01-11T12:24:45;97529.94;;;8.16;39.69
82870;BME280;72645;47.136;15.420;2024-01-11T12:27:17;97526.57;;;8.05;39.51
82870;BME280;72645;47.136;15.420;2024-01-11T12:29:49;97519.52;;;8.09;39.96
82870;BME280;72645;47.136;15.420;2024-01-11T12:32:28;97524.06;;;8.20;39.69
82870;BME280;72645;47.136;15.420;2024-01-11T12:35:00;97524.98;;;8.23;38.89
82870;BME280;72645;47.136;15.420;2024-01-11T12:37:32;97517.84;;;8.23;38.90
82870;BME280;72645;47.136;15.420;2024-01-11T12:40:04;97506.86;;;8.20;39.22
82870;BME280;72645;47.136;15.420;2024-01-11T12:42:37;97507.55;;;8.27;39.02
82870;BME280;72645;47.136;15.420;2024-01-11T12:45:09;97513.39;;;8.36;39.30
82870;BME280;72645;47.136;15.420;2024-01-11T12:47:40;97515.20;;;8.44;38.95
82870;BME280;72645;47.136;15.420;2024-01-11T12:50:12;97510.36;;;8.51;38.79
82870;BME280;72645;47.136;15.420;2024-01-11T12:52:44;97517.20;;;8.55;39.32
82870;BME280;72645;47.136;15.420;2024-01-11T12:55:20;97515.17;;;8.59;38.92
82870;BME280;72645;47.136;15.420;2024-01-11T12:58:04;97514.11;;;8.64;38.30
82870;BME280;72645;47.136;15.420;2024-01-11T13:00:36;97515.54;;;8.66;38.42
82870;BME280;72645;47.136;15.420;2024-01-11T13:03:07;97510.05;;;8.64;38.34
82870;BME280;72645;47.136;15.420;2024-01-11T13:05:38;97509.52;;;8.65;38.72
82870;BME280;72645;47.136;15.420;2024-01-11T13:08:10;97504.97;;;8.70;39.10
82870;BME280;72645;47.136;15.420;2024-01-11T13:10:41;97498.58;;;8.72;38.58
82870;BME280;72645;47.136;15.420;2024-01-11T13:13:12;97492.60;;;8.67;38.74
82870;BME280;72645;47.136;15.420;2024-01-11T13:15:44;97492.30;;;8.61;38.59